createdAt,value
2019-01-26T00:00:25.022Z,30.80
2019-01-26T00:02:53.701Z,19.13
2019-01-26T00:05:22.488Z,30.23
2019-01-26T00:07:52.372Z,29.43
2019-01-26T00:10:21.090Z,29.93
2019-01-26T00:12:49.507Z,35.87
2019-01-26T00:15:18.074Z,30.23
2019-01-26T00:17:46.705Z,30.33
2019-01-26T00:20:15.460Z,30.20
2019-01-26T00:22:44.277Z,28.43
2019-01-26T00:25:13.468Z,35.40
2019-01-26T00:27:42.135Z,29.43
2019-01-26T00:30:25.775Z,28.97
2019-01-26T00:33:20.749Z,33.53
2019-01-26T00:35:49.434Z,29.77
2019-01-26T00:38:18.167Z,28.33
2019-01-26T00:40:48.115Z,34.40
2019-01-26T00:43:16.722Z,30.80
2019-01-26T00:45:45.270Z,31.40
2019-01-26T00:48:14.038Z,37.00
2019-01-26T00:50:42.826Z,33.03
2019-01-26T00:53:11.516Z,35.70
2019-01-26T00:55:40.131Z,34.80
2019-01-26T00:58:10.392Z,37.60
2019-01-26T01:00:38.922Z,32.20
2019-01-26T01:03:09.977Z,35.47
2019-01-26T01:05:38.530Z,35.47
2019-01-26T01:08:07.104Z,32.90
2019-01-26T01:10:37.055Z,32.03
2019-01-26T01:13:05.888Z,37.60
2019-01-26T01:15:34.576Z,33.37
2019-01-26T01:18:03.118Z,42.13
2019-01-26T01:20:33.346Z,34.67
2019-01-26T01:23:02.067Z,38.60
2019-01-26T01:25:30.665Z,31.33
2019-01-26T01:27:59.181Z,35.50
2019-01-26T01:30:27.861Z,35.47
2019-01-26T01:32:56.423Z,42.20
2019-01-26T01:35:25.027Z,33.37
2019-01-26T01:37:53.638Z,33.60
2019-01-26T01:40:22.930Z,37.93
2019-01-26T01:42:51.575Z,31.53
2019-01-26T01:45:20.438Z,36.20
2019-01-26T01:47:49.072Z,34.00
2019-01-26T01:50:17.682Z,30.77
2019-01-26T01:52:46.317Z,36.13
2019-01-26T01:55:14.980Z,40.10
2019-01-26T01:57:43.633Z,32.20
2019-01-26T02:00:14.121Z,38.73
2019-01-26T02:02:42.780Z,32.30
2019-01-26T02:05:11.511Z,30.43
2019-01-26T02:07:40.416Z,36.90
2019-01-26T02:10:09.707Z,35.43
2019-01-26T02:12:38.264Z,33.57
2019-01-26T02:15:07.242Z,35.50
2019-01-26T02:17:35.853Z,38.20
2019-01-26T02:20:05.489Z,30.73
2019-01-26T02:22:34.215Z,32.73
2019-01-26T02:25:02.923Z,31.57
2019-01-26T02:27:31.712Z,39.30
2019-01-26T02:30:00.343Z,25.43
2019-01-26T02:32:29.286Z,38.30
2019-01-26T02:34:58.266Z,26.73
2019-01-26T02:37:26.868Z,32.23
2019-01-26T02:39:55.555Z,26.67
2019-01-26T02:42:24.176Z,25.57
2019-01-26T02:44:52.884Z,28.47
2019-01-26T02:47:21.610Z,23.93
2019-01-26T02:49:53.442Z,27.80
2019-01-26T02:52:22.096Z,28.03
2019-01-26T02:54:50.709Z,26.03
2019-01-26T02:57:19.398Z,25.87
2019-01-26T02:59:48.105Z,24.73
2019-01-26T03:02:20.245Z,24.23
2019-01-26T03:04:48.871Z,25.17
2019-01-26T03:07:17.560Z,30.87
2019-01-26T03:09:46.246Z,25.47
2019-01-26T03:12:14.880Z,22.57
2019-01-26T03:14:43.501Z,27.43
2019-01-26T03:17:12.194Z,26.27
2019-01-26T03:19:40.796Z,24.60
2019-01-26T03:22:09.283Z,27.50
2019-01-26T03:24:37.830Z,20.93
2019-01-26T03:27:06.492Z,20.57
2019-01-26T03:29:35.051Z,18.50
2019-01-26T03:32:03.737Z,17.83
2019-01-26T03:34:32.389Z,17.30
2019-01-26T03:37:01.051Z,17.33
2019-01-26T03:39:29.604Z,11.30
2019-01-26T03:41:58.031Z,13.63
2019-01-26T03:44:26.731Z,17.10
2019-01-26T03:46:55.352Z,17.87
2019-01-26T03:49:23.989Z,12.50
2019-01-26T03:51:52.650Z,15.43
2019-01-26T03:54:21.617Z,19.53
2019-01-26T03:56:50.155Z,13.50
2019-01-26T03:59:18.737Z,12.47
2019-01-26T04:01:47.323Z,20.33
2019-01-26T04:04:15.934Z,14.80
2019-01-26T04:06:44.631Z,10.80
2019-01-26T04:09:13.328Z,14.93
2019-01-26T04:11:41.862Z,16.73
2019-01-26T04:14:10.502Z,14.47
2019-01-26T04:16:39.069Z,18.43
2019-01-26T04:19:07.678Z,14.73
2019-01-26T04:21:36.583Z,14.40
2019-01-26T04:24:05.131Z,15.63
2019-01-26T04:26:33.777Z,15.40
2019-01-26T04:29:02.364Z,11.40
2019-01-26T04:31:30.862Z,16.53
2019-01-26T04:33:59.441Z,25.20
2019-01-26T04:36:28.182Z,16.33
2019-01-26T04:38:56.550Z,18.90
2019-01-26T04:41:25.216Z,11.13
2019-01-26T04:43:53.890Z,12.17
2019-01-26T04:46:22.498Z,12.83
2019-01-26T04:48:51.656Z,18.53
2019-01-26T04:51:20.433Z,16.97
2019-01-26T04:53:49.139Z,16.10
2019-01-26T04:56:17.819Z,13.33
2019-01-26T04:58:46.306Z,17.70
2019-01-26T05:01:14.767Z,17.47
2019-01-26T05:03:43.369Z,19.20
2019-01-26T05:06:11.869Z,18.37
2019-01-26T05:08:40.227Z,19.73
2019-01-26T05:11:08.736Z,15.37
2019-01-26T05:13:37.239Z,16.70
2019-01-26T05:16:05.689Z,15.70
2019-01-26T05:18:34.134Z,16.63
2019-01-26T05:21:02.629Z,20.90
2019-01-26T05:23:31.256Z,15.87
2019-01-26T05:25:59.891Z,14.53
2019-01-26T05:28:28.511Z,20.27
2019-01-26T05:30:57.129Z,15.97
2019-01-26T05:33:25.772Z,13.77
2019-01-26T05:35:54.498Z,19.63
2019-01-26T05:38:26.220Z,14.63
2019-01-26T05:40:54.780Z,19.10
2019-01-26T05:43:23.426Z,14.67
2019-01-26T05:45:52.118Z,14.03
2019-01-26T05:48:20.819Z,17.47
2019-01-26T05:50:49.338Z,10.83
2019-01-26T05:53:18.062Z,10.63
2019-01-26T05:55:46.836Z,14.83
2019-01-26T05:58:15.359Z,15.70
2019-01-26T06:00:44.003Z,16.00
2019-01-26T06:03:12.515Z,11.60
2019-01-26T06:05:41.125Z,19.20
2019-01-26T06:08:09.906Z,14.97
2019-01-26T06:10:38.656Z,12.90
2019-01-26T06:13:07.417Z,15.87
2019-01-26T06:15:36.155Z,18.27
2019-01-26T06:18:06.212Z,14.07
2019-01-26T06:20:34.875Z,17.77
2019-01-26T06:23:03.667Z,16.77
2019-01-26T06:25:32.383Z,22.13
2019-01-26T06:28:00.986Z,22.60
2019-01-26T06:30:29.709Z,24.80
2019-01-26T06:33:01.373Z,24.20
2019-01-26T06:35:30.065Z,21.67
2019-01-26T06:37:58.741Z,16.90
2019-01-26T06:40:28.892Z,25.57
2019-01-26T06:42:57.758Z,20.20
2019-01-26T06:45:30.002Z,19.80
2019-01-26T06:48:02.257Z,24.80
2019-01-26T06:50:29.429Z,22.03
2019-01-26T06:52:58.142Z,29.03
2019-01-26T06:55:26.798Z,25.30
2019-01-26T06:57:55.754Z,28.50
2019-01-26T07:00:39.998Z,27.50
2019-01-26T07:03:11.367Z,38.07
2019-01-26T07:05:47.912Z,37.33
2019-01-26T07:08:18.722Z,38.53
2019-01-26T07:10:47.279Z,33.10
2019-01-26T07:13:16.039Z,25.13
2019-01-26T07:15:46.161Z,28.87
2019-01-26T07:19:09.731Z,30.80
2019-01-26T07:25:47.468Z,30.97
2019-01-26T07:28:20.647Z,30.93
2019-01-26T07:34:00.303Z,33.80
2019-01-26T07:36:41.897Z,36.13
2019-01-26T07:39:15.683Z,33.83
2019-01-26T07:41:51.128Z,31.93
2019-01-26T07:44:20.450Z,28.83
2019-01-26T07:46:56.376Z,32.00
2019-01-26T07:49:25.605Z,26.53
2019-01-26T07:51:58.008Z,31.10
2019-01-26T07:54:30.360Z,27.73
2019-01-26T07:57:06.515Z,29.30
2019-01-26T07:59:39.876Z,26.43
2019-01-26T08:02:08.663Z,34.23
2019-01-26T08:05:22.634Z,32.50
2019-01-26T08:08:17.105Z,34.90
2019-01-26T08:10:52.446Z,29.83
2019-01-26T08:13:33.215Z,31.43
2019-01-26T08:16:18.743Z,35.60
2019-01-26T08:18:53.023Z,33.23
2019-01-26T08:21:22.390Z,36.17
2019-01-26T08:24:35.393Z,32.50
2019-01-26T08:27:04.621Z,35.50
2019-01-26T08:29:33.837Z,34.87
2019-01-26T08:32:06.269Z,36.60
2019-01-26T08:34:35.420Z,30.47
2019-01-26T08:37:06.786Z,27.23
2019-01-26T08:39:46.147Z,31.23
2019-01-26T08:42:18.094Z,23.30
2019-01-26T08:44:49.296Z,31.30
2019-01-26T08:47:21.357Z,29.30
2019-01-26T08:59:05.810Z,32.37
2019-01-26T09:01:34.564Z,24.23
2019-01-26T09:04:31.361Z,20.10
2019-01-26T09:07:26.033Z,23.20
2019-01-26T09:10:06.623Z,27.03
2019-01-26T09:12:40.678Z,22.80
2019-01-26T09:15:13.393Z,22.17
2019-01-26T09:17:42.335Z,23.90
2019-01-26T09:20:11.814Z,26.10
2019-01-26T09:23:06.466Z,24.03
2019-01-26T09:25:38.325Z,20.80
2019-01-26T09:28:16.819Z,19.80
2019-01-26T09:30:48.221Z,24.30
2019-01-26T09:36:49.778Z,20.03
2019-01-26T09:39:21.079Z,12.67
2019-01-26T09:41:56.806Z,15.63
2019-01-26T09:44:25.870Z,11.80
2019-01-26T09:46:56.677Z,18.30
2019-01-26T09:49:30.093Z,10.10
2019-01-26T09:55:19.468Z,16.23
2019-01-26T09:57:48.260Z,12.73
2019-01-26T10:00:17.816Z,12.17
2019-01-26T10:04:46.194Z,22.13
2019-01-26T10:06:31.318Z,17.20
2019-01-26T10:09:10.302Z,15.03
2019-01-26T10:11:41.228Z,18.47
2019-01-26T10:14:14.767Z,18.47
2019-01-26T10:16:43.773Z,18.60
2019-01-26T10:19:19.943Z,16.30
2019-01-26T10:22:21.232Z,23.53
2019-01-26T10:24:50.280Z,19.27
2019-01-26T10:27:20.238Z,17.43
2019-01-26T10:29:59.257Z,17.20
2019-01-26T10:32:44.093Z,20.60
2019-01-26T10:35:14.663Z,25.63
2019-01-26T10:37:46.405Z,17.50
2019-01-26T10:40:49.013Z,18.37
2019-01-26T10:43:23.270Z,16.77
2019-01-26T10:46:07.162Z,18.20
2019-01-26T10:48:40.874Z,16.23
2019-01-26T10:51:19.387Z,15.63
2019-01-26T10:53:51.148Z,17.70
2019-01-26T10:56:20.824Z,18.87
2019-01-26T10:58:49.781Z,14.87
2019-01-26T11:01:21.546Z,18.37
2019-01-26T11:03:50.468Z,15.40
2019-01-26T11:06:19.390Z,14.20
2019-01-26T11:08:49.368Z,14.87
2019-01-26T11:11:18.054Z,16.80
2019-01-26T11:13:50.821Z,13.47
2019-01-26T11:16:22.358Z,16.23
2019-01-26T11:18:57.780Z,13.20
2019-01-26T11:21:29.695Z,12.30
2019-01-26T11:23:58.378Z,15.90
2019-01-26T11:26:27.343Z,14.40
2019-01-26T11:28:56.448Z,10.17
2019-01-26T11:31:29.543Z,8.60
2019-01-26T11:34:06.126Z,13.00
2019-01-26T11:36:41.349Z,9.80
2019-01-26T11:39:13.277Z,12.77
2019-01-26T11:41:42.387Z,11.37
2019-01-26T11:44:12.142Z,10.63
2019-01-26T11:46:45.526Z,14.67
2019-01-26T11:49:17.909Z,12.97
2019-01-26T11:52:12.232Z,14.90
2019-01-26T11:55:16.387Z,10.00
2019-01-26T11:57:45.319Z,8.17
2019-01-26T12:00:33.167Z,8.73
2019-01-26T12:03:38.038Z,8.60
2019-01-26T12:06:17.921Z,8.07
2019-01-26T12:08:47.198Z,4.43
2019-01-26T12:11:16.250Z,4.27
2019-01-26T12:13:45.610Z,3.47
2019-01-26T12:16:14.791Z,6.57
2019-01-26T12:18:45.046Z,8.13
2019-01-26T12:21:14.522Z,5.07
2019-01-26T12:23:43.113Z,7.10
2019-01-26T12:26:14.075Z,3.83
2019-01-26T12:28:42.823Z,2.70
2019-01-26T12:31:12.544Z,1.90
2019-01-26T12:33:49.170Z,5.70
2019-01-26T12:36:25.988Z,3.03
2019-01-26T12:38:57.744Z,3.27
2019-01-26T12:41:26.442Z,4.60
2019-01-26T12:43:57.940Z,2.23
2019-01-26T12:46:27.416Z,4.37
2019-01-26T12:48:57.224Z,2.20
2019-01-26T12:51:26.236Z,1.93
2019-01-26T12:53:54.815Z,4.67
2019-01-26T12:56:23.420Z,4.13
2019-01-26T12:58:51.916Z,3.97
2019-01-26T13:01:20.576Z,3.50
2019-01-26T13:03:49.354Z,2.87
2019-01-26T13:06:18.130Z,3.63
2019-01-26T13:08:49.712Z,2.87
2019-01-26T13:11:20.562Z,6.23
2019-01-26T13:13:49.345Z,3.27
2019-01-26T13:16:19.472Z,6.10
2019-01-26T13:18:48.341Z,5.87
2019-01-26T13:21:17.046Z,6.67
2019-01-26T13:23:45.999Z,2.97
2019-01-26T13:26:14.860Z,5.67
2019-01-26T13:28:43.582Z,4.40
2019-01-26T13:31:12.344Z,5.33
2019-01-26T13:33:40.964Z,6.23
2019-01-26T13:36:09.371Z,5.20
2019-01-26T13:38:38.525Z,7.27
2019-01-26T13:41:07.072Z,9.27
2019-01-26T13:43:35.644Z,4.93
2019-01-26T13:46:05.568Z,5.43
2019-01-26T13:48:40.378Z,6.00
2019-01-26T13:51:12.913Z,9.03
2019-01-26T13:53:39.263Z,8.07
2019-01-26T13:56:07.687Z,6.77
2019-01-26T13:58:36.214Z,6.43
2019-01-26T14:01:04.851Z,5.83
2019-01-26T14:03:33.433Z,5.70
2019-01-26T14:06:02.050Z,6.80
2019-01-26T14:08:30.718Z,7.23
2019-01-26T14:10:59.256Z,6.40
2019-01-26T14:13:27.778Z,10.30
2019-01-26T14:15:56.193Z,3.00
2019-01-26T14:18:24.963Z,4.37
2019-01-26T14:20:53.507Z,7.47
2019-01-26T14:23:22.225Z,5.87
2019-01-26T14:25:50.856Z,6.30
2019-01-26T14:30:05.503Z,6.73
2019-01-26T14:31:00.122Z,3.73
2019-01-26T14:33:51.246Z,6.93
2019-01-26T14:35:59.441Z,6.13
2019-01-26T14:38:28.024Z,13.73
2019-01-26T14:40:56.741Z,6.97
2019-01-26T14:43:25.447Z,6.10
2019-01-26T14:45:54.019Z,4.77
2019-01-26T14:48:22.666Z,4.83
2019-01-26T14:50:51.300Z,5.23
2019-01-26T14:53:19.942Z,9.00
2019-01-26T14:55:48.437Z,10.30
2019-01-26T14:58:17.278Z,4.57
2019-01-26T15:00:45.782Z,9.67
2019-01-26T15:03:14.444Z,9.23
2019-01-26T15:05:43.000Z,8.03
2019-01-26T15:08:13.319Z,6.40
2019-01-26T15:10:42.045Z,4.83
2019-01-26T15:13:10.737Z,9.57
2019-01-26T15:15:41.351Z,6.20
2019-01-26T15:18:09.946Z,5.10
2019-01-26T15:20:39.472Z,4.90
2019-01-26T15:23:08.344Z,8.00
2019-01-26T15:25:44.490Z,5.43
2019-01-26T15:28:12.956Z,4.77
2019-01-26T15:30:42.296Z,8.17
2019-01-26T15:33:11.289Z,7.20
2019-01-26T15:35:39.907Z,9.23
2019-01-26T15:38:09.257Z,8.23
2019-01-26T15:40:37.704Z,9.13
2019-01-26T15:43:06.716Z,9.43
2019-01-26T15:45:36.735Z,7.53
2019-01-26T15:48:08.709Z,10.00
2019-01-26T15:50:37.242Z,4.07
2019-01-26T15:53:08.864Z,5.67
2019-01-26T15:55:37.506Z,7.57
2019-01-26T15:58:06.708Z,7.53
2019-01-26T16:00:36.736Z,6.30
2019-01-26T16:03:05.521Z,7.93
2019-01-26T16:05:34.203Z,7.63
2019-01-26T16:08:02.940Z,5.30
2019-01-26T16:10:31.476Z,7.60
2019-01-26T16:13:00.275Z,9.67
2019-01-26T16:15:29.689Z,5.00
2019-01-26T16:17:58.352Z,6.67
2019-01-26T16:20:26.776Z,10.10
2019-01-26T16:22:55.340Z,7.67
2019-01-26T16:25:23.889Z,8.67
2019-01-26T16:27:53.756Z,13.90
2019-01-26T16:30:37.104Z,9.97
2019-01-26T16:33:05.681Z,8.47
2019-01-26T16:35:35.680Z,6.23
2019-01-26T16:38:04.501Z,8.47
2019-01-26T16:40:34.884Z,8.20
2019-01-26T16:43:06.983Z,6.53
2019-01-26T16:45:37.674Z,5.30
2019-01-26T16:48:10.935Z,7.43
2019-01-26T16:50:39.763Z,5.70
2019-01-26T16:53:08.641Z,9.67
2019-01-26T16:55:40.998Z,3.67
2019-01-26T16:58:12.928Z,5.87
2019-01-26T17:00:43.188Z,10.57
2019-01-26T17:03:12.499Z,7.70
2019-01-26T17:05:44.321Z,4.37
2019-01-26T17:09:30.545Z,6.97
2019-01-26T17:11:50.266Z,6.50
2019-01-26T17:26:40.053Z,8.93
2019-01-26T17:29:28.148Z,5.77
2019-01-26T17:31:57.107Z,7.60
2019-01-26T17:37:33.175Z,6.87
2019-01-26T17:40:17.732Z,8.50
2019-01-26T17:46:54.869Z,5.70
2019-01-26T17:49:16.542Z,5.07
2019-01-26T17:51:45.655Z,5.23
2019-01-26T17:54:17.053Z,4.27
2019-01-26T17:56:45.863Z,4.30
2019-01-26T17:59:14.626Z,9.00
2019-01-26T18:01:43.470Z,6.57
2019-01-26T18:04:12.286Z,5.33
2019-01-26T18:06:42.387Z,7.37
2019-01-26T18:09:13.750Z,10.97
2019-01-26T18:11:46.652Z,9.37
2019-01-26T18:14:18.670Z,16.07
2019-01-26T18:16:51.855Z,12.00
2019-01-26T18:19:20.987Z,14.97
2019-01-26T18:21:55.372Z,16.03
2019-01-26T18:24:25.968Z,14.20
2019-01-26T18:26:57.653Z,14.17
2019-01-26T18:29:36.784Z,15.03
2019-01-26T18:38:45.519Z,11.87
2019-01-26T18:47:28.464Z,10.43
2019-01-26T18:53:42.814Z,9.63
2019-01-26T18:56:23.468Z,10.43
2019-01-26T19:00:10.501Z,14.47
2019-01-26T19:02:40.727Z,14.53
2019-01-26T19:05:33.489Z,16.53
2019-01-26T20:33:39.035Z,24.03
2019-01-26T20:36:08.036Z,25.87
2019-01-26T20:38:43.967Z,22.20
2019-01-26T20:41:12.705Z,22.90
2019-01-26T20:47:02.467Z,24.83
2019-01-26T21:03:57.798Z,27.40
2019-01-26T21:12:43.516Z,21.37
2019-01-26T21:16:16.373Z,21.93
2019-01-26T21:18:41.817Z,17.90
2019-01-26T21:47:25.697Z,12.83
2019-01-26T21:50:11.851Z,12.97
